createdAt,value
2022-08-28T00:00:29.380Z,7.40
2022-08-28T00:02:57.164Z,8.55
2022-08-28T00:05:27.343Z,7.13
2022-08-28T00:07:54.191Z,8.18
2022-08-28T00:10:24.073Z,7.57
2022-08-28T00:12:56.529Z,7.43
2022-08-28T00:15:29.789Z,7.35
2022-08-28T00:17:57.133Z,7.80
2022-08-28T00:20:25.617Z,7.90
2022-08-28T00:22:55.613Z,7.50
2022-08-28T00:25:25.217Z,7.47
2022-08-28T00:27:55.240Z,7.53
2022-08-28T00:30:30.700Z,6.90
2022-08-28T00:33:01.884Z,7.05
2022-08-28T00:35:29.644Z,6.55
2022-08-28T00:37:58.004Z,7.20
2022-08-28T00:40:28.595Z,7.15
2022-08-28T00:42:58.260Z,6.90
2022-08-28T00:45:25.928Z,7.10
2022-08-28T00:47:53.006Z,6.80
2022-08-28T00:50:23.514Z,7.15
2022-08-28T00:52:56.364Z,7.63
2022-08-28T00:55:26.687Z,7.57
2022-08-28T00:57:56.511Z,6.10
2022-08-28T01:00:32.295Z,6.97
2022-08-28T01:02:59.572Z,5.90
2022-08-28T01:05:28.853Z,6.70
2022-08-28T01:07:58.720Z,6.97
2022-08-28T01:10:29.205Z,7.13
2022-08-28T01:12:57.313Z,7.45
2022-08-28T01:15:33.573Z,7.88
2022-08-28T01:18:08.040Z,6.00
2022-08-28T01:20:42.574Z,6.45
2022-08-28T01:23:35.878Z,6.80
2022-08-28T01:26:02.644Z,5.97
2022-08-28T01:28:38.545Z,6.78
2022-08-28T01:31:05.485Z,7.15
2022-08-28T01:33:32.313Z,6.80
2022-08-28T01:35:59.576Z,6.45
2022-08-28T01:38:27.730Z,7.22
2022-08-28T01:40:57.218Z,7.22
2022-08-28T01:43:31.399Z,6.28
2022-08-28T01:46:04.970Z,6.68
2022-08-28T01:48:36.111Z,7.10
2022-08-28T01:51:05.194Z,6.97
2022-08-28T01:53:33.534Z,6.90
2022-08-28T01:56:08.045Z,6.57
2022-08-28T01:58:38.291Z,6.40
2022-08-28T02:01:13.865Z,6.50
2022-08-28T02:03:43.194Z,5.45
2022-08-28T02:06:10.988Z,5.13
2022-08-28T02:08:37.890Z,5.45
2022-08-28T02:11:06.473Z,6.78
2022-08-28T02:13:36.133Z,6.78
2022-08-28T02:16:08.864Z,5.78
2022-08-28T02:18:36.724Z,7.13
2022-08-28T02:21:05.117Z,6.25
2022-08-28T02:23:32.310Z,6.75
2022-08-28T02:25:59.797Z,6.75
2022-08-28T02:28:26.614Z,6.07
2022-08-28T02:30:53.501Z,7.20
2022-08-28T02:33:20.722Z,6.10
2022-08-28T02:35:49.417Z,7.88
2022-08-28T02:38:17.260Z,7.45
2022-08-28T02:40:45.731Z,8.10
2022-08-28T02:43:12.644Z,7.25
2022-08-28T02:45:39.432Z,7.03
2022-08-28T02:48:17.030Z,7.45
2022-08-28T02:50:45.237Z,8.30
2022-08-28T02:53:12.706Z,7.00
2022-08-28T02:55:39.916Z,7.53
2022-08-28T02:58:09.537Z,7.10
2022-08-28T03:00:36.845Z,7.47
2022-08-28T03:03:05.300Z,7.32
2022-08-28T03:05:32.118Z,8.05
2022-08-28T03:07:59.409Z,7.80
2022-08-28T03:10:26.373Z,9.23
2022-08-28T03:12:53.568Z,8.23
2022-08-28T03:15:20.513Z,7.25
2022-08-28T03:17:47.967Z,8.27
2022-08-28T03:20:15.710Z,7.10
2022-08-28T03:23:01.638Z,7.03
2022-08-28T03:25:29.224Z,6.88
2022-08-28T03:27:56.479Z,6.97
2022-08-28T03:30:23.624Z,7.38
2022-08-28T03:32:50.872Z,6.97
2022-08-28T03:35:17.819Z,7.85
2022-08-28T03:37:44.640Z,8.07
2022-08-28T03:40:12.526Z,6.72
2022-08-28T03:42:39.336Z,6.88
2022-08-28T03:45:11.188Z,7.22
2022-08-28T03:47:39.432Z,7.00
2022-08-28T03:50:07.865Z,7.32
2022-08-28T03:52:38.827Z,6.50
2022-08-28T03:55:08.803Z,7.25
2022-08-28T03:57:36.220Z,7.40
2022-08-28T04:00:07.257Z,7.03
2022-08-28T04:02:34.027Z,7.13
2022-08-28T04:05:00.833Z,6.38
2022-08-28T04:07:27.697Z,6.63
2022-08-28T04:09:54.475Z,7.43
2022-08-28T04:12:21.281Z,7.50
2022-08-28T04:14:48.090Z,8.23
2022-08-28T04:17:14.958Z,6.70
2022-08-28T04:19:41.777Z,7.45
2022-08-28T04:22:08.548Z,6.25
2022-08-28T04:24:36.354Z,7.25
2022-08-28T04:27:03.757Z,7.82
2022-08-28T04:29:31.820Z,7.03
2022-08-28T04:31:58.762Z,7.65
2022-08-28T04:34:25.544Z,7.13
2022-08-28T04:36:53.572Z,7.45
2022-08-28T04:39:20.509Z,6.55
2022-08-28T04:41:47.337Z,6.10
2022-08-28T04:44:14.181Z,6.45
2022-08-28T04:46:40.951Z,6.30
2022-08-28T04:49:08.389Z,6.25
2022-08-28T04:51:38.894Z,7.05
2022-08-28T04:54:10.815Z,6.20
2022-08-28T04:56:39.980Z,6.25
2022-08-28T04:59:07.529Z,6.78
2022-08-28T05:01:34.527Z,6.40
2022-08-28T05:04:02.853Z,6.40
2022-08-28T05:06:32.726Z,6.00
2022-08-28T05:09:01.257Z,6.80
2022-08-28T05:11:34.047Z,5.90
2022-08-28T05:14:07.424Z,5.53
2022-08-28T05:16:42.404Z,5.72
2022-08-28T05:19:09.416Z,6.25
2022-08-28T05:21:36.260Z,5.32
2022-08-28T05:24:03.383Z,5.75
2022-08-28T05:26:30.309Z,6.13
2022-08-28T05:28:59.445Z,5.57
2022-08-28T05:31:28.895Z,5.88
2022-08-28T05:33:56.323Z,5.70
2022-08-28T05:36:25.887Z,5.72
2022-08-28T05:38:59.981Z,6.85
2022-08-28T05:41:30.313Z,5.30
2022-08-28T05:44:03.077Z,5.53
2022-08-28T05:46:30.396Z,5.50
2022-08-28T05:48:57.747Z,5.97
2022-08-28T05:51:26.843Z,5.55
2022-08-28T05:53:55.781Z,5.22
2022-08-28T05:56:29.879Z,5.88
2022-08-28T05:59:00.017Z,5.43
2022-08-28T06:01:32.759Z,5.53
2022-08-28T06:04:08.040Z,6.00
2022-08-28T06:06:35.920Z,5.60
2022-08-28T06:09:12.623Z,4.88
2022-08-28T06:11:40.505Z,5.40
2022-08-28T06:14:13.637Z,5.53
2022-08-28T06:16:44.742Z,4.90
2022-08-28T06:19:12.627Z,5.22
2022-08-28T06:21:41.544Z,5.32
2022-08-28T06:24:10.392Z,4.65
2022-08-28T06:26:37.556Z,5.22
2022-08-28T06:29:08.588Z,5.22
2022-08-28T06:31:36.261Z,4.25
2022-08-28T06:34:05.816Z,4.90
2022-08-28T06:36:35.546Z,5.10
2022-08-28T06:39:04.638Z,5.57
2022-08-28T06:41:32.311Z,5.25
2022-08-28T06:43:59.756Z,4.40
2022-08-28T06:46:29.252Z,5.07
2022-08-28T06:48:56.253Z,4.75
2022-08-28T06:51:24.906Z,4.78
2022-08-28T06:53:52.080Z,4.50
2022-08-28T06:56:26.414Z,4.85
2022-08-28T06:58:56.893Z,4.82
2022-08-28T07:01:33.697Z,4.50
2022-08-28T07:04:11.692Z,4.70
2022-08-28T07:06:43.208Z,5.20
2022-08-28T07:09:11.424Z,4.85
2022-08-28T07:11:38.983Z,4.68
2022-08-28T07:14:06.465Z,4.70
2022-08-28T07:16:38.472Z,4.70
2022-08-28T07:19:07.405Z,4.82
2022-08-28T07:21:38.324Z,4.93
2022-08-28T07:24:07.833Z,4.20
2022-08-28T07:26:36.325Z,4.75
2022-08-28T07:29:11.021Z,4.45
2022-08-28T07:31:41.345Z,4.45
2022-08-28T07:34:10.069Z,6.15
2022-08-28T07:36:37.015Z,5.15
2022-08-28T07:39:05.214Z,4.65
2022-08-28T07:41:35.397Z,4.57
2022-08-28T07:44:21.833Z,4.88
2022-08-28T07:46:52.715Z,5.00
2022-08-28T07:49:19.663Z,4.95
2022-08-28T07:51:46.895Z,4.28
2022-08-28T07:54:15.673Z,5.25
2022-08-28T07:56:45.725Z,5.60
2022-08-28T07:59:16.901Z,4.65
2022-08-28T08:01:47.039Z,4.65
2022-08-28T08:04:19.241Z,5.00
2022-08-28T08:06:46.935Z,5.00
2022-08-28T08:09:16.073Z,5.80
2022-08-28T08:11:43.211Z,5.53
2022-08-28T08:14:10.752Z,4.53
2022-08-28T08:16:40.350Z,4.90
2022-08-28T08:19:13.945Z,5.35
2022-08-28T08:21:46.285Z,5.18
2022-08-28T08:24:20.940Z,5.47
2022-08-28T08:26:50.803Z,4.75
2022-08-28T08:29:29.066Z,5.85
2022-08-28T08:31:58.959Z,4.80
2022-08-28T08:34:25.955Z,5.10
2022-08-28T08:36:52.819Z,5.10
2022-08-28T08:39:20.172Z,4.65
2022-08-28T08:41:51.756Z,5.68
2022-08-28T08:44:40.347Z,4.82
2022-08-28T08:47:19.390Z,4.47
2022-08-28T08:49:58.852Z,4.50
2022-08-28T08:53:10.330Z,5.00
2022-08-28T08:55:53.048Z,5.20
2022-08-28T08:58:31.691Z,4.25
2022-08-28T09:01:07.646Z,3.65
2022-08-28T09:03:59.797Z,3.97
2022-08-28T09:06:39.741Z,3.53
2022-08-28T09:09:18.807Z,4.72
2022-08-28T09:11:56.948Z,4.57
2022-08-28T09:14:31.427Z,4.03
2022-08-28T09:16:59.445Z,4.47
2022-08-28T09:19:26.834Z,4.43
2022-08-28T09:21:53.811Z,4.70
2022-08-28T09:24:25.478Z,4.60
2022-08-28T09:27:04.135Z,4.57
2022-08-28T09:29:38.374Z,5.15
2022-08-28T09:32:29.895Z,4.57
2022-08-28T09:35:01.675Z,4.53
2022-08-28T09:37:32.273Z,4.10
2022-08-28T09:40:52.136Z,4.43
2022-08-28T09:43:27.451Z,4.07
2022-08-28T09:46:02.869Z,4.18
2022-08-28T09:48:36.000Z,4.43
2022-08-28T09:51:09.751Z,4.57
2022-08-28T09:54:08.053Z,4.28
2022-08-28T09:56:39.975Z,3.67
2022-08-28T09:59:14.976Z,3.50
2022-08-28T10:01:45.092Z,3.85
2022-08-28T10:04:35.803Z,3.90
2022-08-28T10:07:31.096Z,4.90
2022-08-28T10:10:17.242Z,4.13
2022-08-28T10:13:10.945Z,4.07
2022-08-28T10:15:54.099Z,3.80
2022-08-28T10:18:39.690Z,3.85
2022-08-28T10:21:18.742Z,4.00
2022-08-28T10:24:10.836Z,4.07
2022-08-28T10:27:14.787Z,3.97
2022-08-28T10:30:04.267Z,4.05
2022-08-28T10:32:52.451Z,3.83
2022-08-28T10:35:35.099Z,4.00
2022-08-28T10:38:25.521Z,4.45
2022-08-28T10:41:18.164Z,4.40
2022-08-28T10:43:48.196Z,4.43
2022-08-28T10:46:27.055Z,3.80
2022-08-28T10:49:00.109Z,4.00
2022-08-28T10:51:44.466Z,4.80
2022-08-28T10:54:35.042Z,4.40
2022-08-28T10:57:22.589Z,4.38
2022-08-28T10:59:52.662Z,4.28
2022-08-28T11:02:24.564Z,3.85
2022-08-28T11:04:58.213Z,4.90
2022-08-28T11:07:40.395Z,4.28
2022-08-28T11:10:29.053Z,4.68
2022-08-28T11:12:56.298Z,3.67
2022-08-28T11:15:36.370Z,4.10
2022-08-28T11:18:16.380Z,4.38
2022-08-28T11:20:56.458Z,2.80
2022-08-28T11:23:31.915Z,3.10
2022-08-28T11:26:03.989Z,2.83
2022-08-28T11:28:42.221Z,2.60
2022-08-28T11:31:09.982Z,2.47
2022-08-28T11:33:52.551Z,2.50
2022-08-28T11:36:19.383Z,2.33
2022-08-28T11:38:46.480Z,2.50
2022-08-28T11:41:27.508Z,1.90
2022-08-28T11:44:09.277Z,2.33
2022-08-28T11:46:42.677Z,2.00
2022-08-28T11:49:26.252Z,2.10
2022-08-28T11:52:17.191Z,2.40
2022-08-28T11:55:25.313Z,2.20
2022-08-28T12:00:52.640Z,2.03
2022-08-28T12:03:32.311Z,1.73
2022-08-28T12:06:01.424Z,1.90
2022-08-28T12:09:02.714Z,2.75
2022-08-28T12:11:44.924Z,1.77
2022-08-28T12:14:13.166Z,1.65
2022-08-28T12:16:58.682Z,2.10
2022-08-28T12:19:52.435Z,2.00
2022-08-28T12:22:52.849Z,2.00
2022-08-28T12:25:34.307Z,1.40
2022-08-28T12:28:26.007Z,1.80
2022-08-28T12:31:44.374Z,1.65
2022-08-28T12:34:18.964Z,1.98
2022-08-28T12:36:48.963Z,1.60
2022-08-28T12:39:18.993Z,1.90
2022-08-28T12:41:46.332Z,1.83
2022-08-28T12:44:15.505Z,1.40
2022-08-28T12:46:43.797Z,1.38
2022-08-28T12:49:32.864Z,1.33
2022-08-28T12:52:21.756Z,2.72
2022-08-28T12:54:55.199Z,1.40
2022-08-28T12:57:25.116Z,1.40
2022-08-28T13:00:06.791Z,1.48
2022-08-28T13:02:34.720Z,1.58
2022-08-28T13:05:03.776Z,1.60
2022-08-28T13:07:40.267Z,1.58
2022-08-28T13:10:40.854Z,1.35
2022-08-28T13:13:11.785Z,1.70
2022-08-28T13:15:47.822Z,2.20
2022-08-28T13:18:33.586Z,1.65
2022-08-28T13:21:13.202Z,1.50
2022-08-28T13:23:40.622Z,1.67
2022-08-28T13:26:08.550Z,2.15
2022-08-28T13:28:38.541Z,1.63
2022-08-28T13:31:05.654Z,2.13
2022-08-28T13:33:32.930Z,1.50
2022-08-28T13:36:21.402Z,1.52
2022-08-28T13:38:48.768Z,1.70
2022-08-28T13:41:15.712Z,1.40
2022-08-28T13:43:46.260Z,1.33
2022-08-28T13:46:13.208Z,1.38
2022-08-28T13:48:40.120Z,1.33
2022-08-28T13:51:11.240Z,1.20
2022-08-28T13:53:40.166Z,1.17
2022-08-28T13:56:07.316Z,1.30
2022-08-28T13:58:34.144Z,1.00
2022-08-28T14:01:02.010Z,1.63
2022-08-28T14:03:39.255Z,1.00
2022-08-28T14:06:11.629Z,1.00
2022-08-28T14:08:40.929Z,1.30
2022-08-28T14:11:08.863Z,1.15
2022-08-28T14:13:40.950Z,1.13
2022-08-28T14:16:16.796Z,0.80
2022-08-28T14:18:43.781Z,0.98
2022-08-28T14:21:10.587Z,1.10
2022-08-28T14:23:37.396Z,1.08
2022-08-28T14:26:05.768Z,1.00
2022-08-28T14:28:32.634Z,1.50
2022-08-28T14:30:59.809Z,1.10
2022-08-28T14:33:26.660Z,1.08
2022-08-28T14:35:54.696Z,1.00
2022-08-28T14:38:21.562Z,0.95
2022-08-28T14:40:48.360Z,1.30
2022-08-28T14:43:15.850Z,1.00
2022-08-28T14:45:49.414Z,0.95
2022-08-28T14:48:18.470Z,0.73
2022-08-28T14:50:48.043Z,1.10
2022-08-28T14:53:15.945Z,1.35
2022-08-28T14:55:48.489Z,1.27
2022-08-28T14:58:17.423Z,1.00
2022-08-28T15:00:48.345Z,0.98
2022-08-28T15:03:16.704Z,1.00
2022-08-28T15:05:43.697Z,0.90
2022-08-28T15:08:13.102Z,0.80
2022-08-28T15:10:42.311Z,0.80
2022-08-28T15:13:13.238Z,0.90
2022-08-28T15:15:42.561Z,0.88
2022-08-28T15:18:10.502Z,1.10
2022-08-28T15:20:45.244Z,1.25
2022-08-28T15:23:14.321Z,1.00
2022-08-28T15:25:41.656Z,0.90
2022-08-28T15:28:08.683Z,1.05
2022-08-28T15:30:36.773Z,1.10
2022-08-28T15:33:03.713Z,1.00
2022-08-28T15:35:30.548Z,1.08
2022-08-28T15:37:57.765Z,1.23
2022-08-28T15:40:43.663Z,1.13
2022-08-28T15:43:10.937Z,1.60
2022-08-28T15:45:39.551Z,2.22
2022-08-28T15:48:07.584Z,2.20
2022-08-28T15:50:34.592Z,2.22
2022-08-28T15:53:02.422Z,2.60
2022-08-28T15:55:30.345Z,2.47
2022-08-28T15:57:57.577Z,2.78
2022-08-28T16:00:24.606Z,2.60
2022-08-28T16:02:51.816Z,3.38
2022-08-28T16:05:19.105Z,3.10
2022-08-28T16:07:46.631Z,2.55
2022-08-28T16:10:13.859Z,2.40
2022-08-28T16:12:41.458Z,2.38
2022-08-28T16:15:09.773Z,2.60
2022-08-28T16:17:36.587Z,2.90
2022-08-28T16:20:12.836Z,3.05
2022-08-28T16:22:40.761Z,2.92
2022-08-28T16:25:08.460Z,2.80
2022-08-28T16:27:35.684Z,2.65
2022-08-28T16:30:03.740Z,2.88
2022-08-28T16:32:30.944Z,3.10
2022-08-28T16:34:58.783Z,2.75
2022-08-28T16:37:27.133Z,3.03
2022-08-28T16:40:09.015Z,2.33
2022-08-28T16:42:36.107Z,2.40
2022-08-28T16:45:04.480Z,2.40
2022-08-28T16:47:33.307Z,2.08
2022-08-28T16:50:02.052Z,2.25
2022-08-28T16:52:28.828Z,2.50
2022-08-28T16:54:55.618Z,2.45
2022-08-28T16:57:23.785Z,2.22
2022-08-28T16:59:53.534Z,2.22
2022-08-28T17:02:26.568Z,2.22
2022-08-28T17:04:55.387Z,2.15
2022-08-28T17:07:22.917Z,2.42
2022-08-28T17:09:49.866Z,2.50
2022-08-28T17:12:17.175Z,2.40
2022-08-28T17:14:44.293Z,2.60
2022-08-28T17:19:56.364Z,2.90
2022-08-28T17:22:32.629Z,2.38
2022-08-28T17:25:07.579Z,2.38
2022-08-28T17:27:36.647Z,2.72
2022-08-28T17:30:05.133Z,2.50
2022-08-28T17:32:32.266Z,2.67
2022-08-28T17:34:59.533Z,2.53
2022-08-28T17:37:27.056Z,2.22
2022-08-28T17:39:54.598Z,2.50
2022-08-28T17:42:21.975Z,2.53
2022-08-28T17:44:49.340Z,2.60
2022-08-28T17:47:16.283Z,2.42
2022-08-28T17:52:18.733Z,3.45
2022-08-28T17:54:45.721Z,2.60
2022-08-28T17:57:14.039Z,2.38
2022-08-28T17:59:40.946Z,2.40
2022-08-28T18:02:08.556Z,2.65
2022-08-28T18:04:36.267Z,2.78
2022-08-28T18:07:03.296Z,2.33
2022-08-28T18:09:30.522Z,2.92
2022-08-28T18:11:57.488Z,2.95
2022-08-28T18:14:24.356Z,3.13
2022-08-28T18:16:51.889Z,2.38
2022-08-28T18:19:19.890Z,2.38
2022-08-28T18:21:46.959Z,2.60
2022-08-28T18:24:14.268Z,2.83
2022-08-28T18:26:43.024Z,2.85
2022-08-28T18:29:11.162Z,2.60
2022-08-28T18:31:38.264Z,2.72
2022-08-28T18:34:05.513Z,2.47
2022-08-28T18:36:33.048Z,2.70
2022-08-28T18:39:00.172Z,2.45
2022-08-28T18:41:32.641Z,2.70
2022-08-28T18:44:10.998Z,2.25
2022-08-28T18:46:38.704Z,2.28
2022-08-28T18:49:05.867Z,2.05
2022-08-28T18:51:33.179Z,2.20
2022-08-28T18:54:01.763Z,2.22
2022-08-28T18:56:30.899Z,3.00
2022-08-28T18:58:59.598Z,2.35
2022-08-28T19:01:27.192Z,2.53
2022-08-28T19:03:55.452Z,2.72
2022-08-28T19:06:22.609Z,2.70
2022-08-28T19:08:49.420Z,1.95
2022-08-28T19:11:16.637Z,2.42
2022-08-28T19:13:43.780Z,2.72
2022-08-28T19:16:15.134Z,3.20
2022-08-28T19:18:41.900Z,4.22
2022-08-28T19:21:16.158Z,3.08
2022-08-28T19:23:55.398Z,6.22
2022-08-28T19:26:24.734Z,5.07
2022-08-28T19:28:51.959Z,4.53
2022-08-28T19:31:19.077Z,4.72
2022-08-28T19:33:46.846Z,5.50
2022-08-28T19:36:14.166Z,4.47
2022-08-28T19:38:41.673Z,4.20
2022-08-28T19:41:10.552Z,2.95
2022-08-28T19:43:44.543Z,3.22
2022-08-28T19:46:19.541Z,3.83
2022-08-28T19:48:52.011Z,3.70
2022-08-28T19:51:22.661Z,3.83
2022-08-28T19:53:58.331Z,3.70
2022-08-28T19:56:31.664Z,3.80
2022-08-28T19:59:01.466Z,4.03
2022-08-28T20:01:31.369Z,3.70
2022-08-28T20:03:59.285Z,3.60
2022-08-28T20:06:27.604Z,3.80
2022-08-28T20:08:54.670Z,3.28
2022-08-28T20:11:30.263Z,2.67
2022-08-28T20:14:03.856Z,2.42
2022-08-28T20:16:34.171Z,3.03
2022-08-28T20:19:01.517Z,2.90
2022-08-28T20:21:37.254Z,3.03
2022-08-28T20:24:09.953Z,2.80
2022-08-28T20:26:37.101Z,2.75
2022-08-28T20:29:06.893Z,3.38
2022-08-28T20:31:34.078Z,3.25
2022-08-28T20:34:01.418Z,3.20
2022-08-28T20:36:28.230Z,4.07
2022-08-28T20:38:55.046Z,2.97
2022-08-28T20:41:22.783Z,3.17
2022-08-28T20:43:50.097Z,3.40
2022-08-28T20:46:17.164Z,4.63
2022-08-28T20:48:44.465Z,4.30
2022-08-28T20:51:12.105Z,3.40
2022-08-28T20:53:39.172Z,2.55
2022-08-28T20:56:10.040Z,3.55
2022-08-28T20:58:38.006Z,3.42
2022-08-28T21:01:05.739Z,3.17
2022-08-28T21:03:32.687Z,3.33
2022-08-28T21:05:59.930Z,4.00
2022-08-28T21:08:26.757Z,3.28
2022-08-28T21:10:53.560Z,3.53
2022-08-28T21:13:21.601Z,3.60
2022-08-28T21:15:49.286Z,3.20
2022-08-28T21:18:16.529Z,3.20
2022-08-28T21:20:44.226Z,3.75
2022-08-28T21:23:11.530Z,3.20
2022-08-28T21:25:42.789Z,3.65
2022-08-28T21:28:10.110Z,3.65
2022-08-28T21:30:37.659Z,3.70
2022-08-28T21:33:05.412Z,3.80
2022-08-28T21:35:32.862Z,3.90
2022-08-28T21:37:59.998Z,3.65
2022-08-28T21:40:27.289Z,3.97
2022-08-28T21:42:54.796Z,3.88
2022-08-28T21:45:22.496Z,3.60
2022-08-28T21:47:49.728Z,4.30
2022-08-28T21:50:17.671Z,3.78
2022-08-28T21:52:44.995Z,4.00
2022-08-28T21:55:14.767Z,3.78
2022-08-28T21:57:44.831Z,3.53
2022-08-28T22:00:17.438Z,4.18
2022-08-28T22:02:44.870Z,3.67
2022-08-28T22:05:12.439Z,3.80
2022-08-28T22:07:41.756Z,3.65
2022-08-28T22:10:12.260Z,4.00
2022-08-28T22:12:39.139Z,4.35
2022-08-28T22:15:06.430Z,4.22
2022-08-28T22:17:33.761Z,3.47
2022-08-28T22:20:01.356Z,4.00
2022-08-28T22:22:47.298Z,3.78
2022-08-28T22:25:14.465Z,3.85
2022-08-28T22:35:57.545Z,4.13
2022-08-28T22:38:25.735Z,3.95
2022-08-28T22:40:53.110Z,4.50
2022-08-28T22:43:20.469Z,3.70
2022-08-28T22:45:48.198Z,4.00
2022-08-28T22:48:16.925Z,3.80
2022-08-28T22:50:45.775Z,4.07
2022-08-28T22:53:13.785Z,4.15
2022-08-28T22:55:43.634Z,4.60
2022-08-28T22:58:12.992Z,3.92
2022-08-28T23:00:42.037Z,3.67
2022-08-28T23:03:09.554Z,3.72
2022-08-28T23:05:37.463Z,4.03
2022-08-28T23:08:04.821Z,4.50
2022-08-28T23:10:55.325Z,3.85
2022-08-28T23:13:20.377Z,4.30
2022-08-28T23:15:48.770Z,3.92
2022-08-28T23:18:16.455Z,4.55
2022-08-28T23:20:44.336Z,4.10
2022-08-28T23:23:11.900Z,4.53
2022-08-28T23:25:39.008Z,4.15
2022-08-28T23:28:06.673Z,4.65
2022-08-28T23:30:34.044Z,4.90
2022-08-28T23:33:01.212Z,4.82
2022-08-28T23:35:28.356Z,4.20
2022-08-28T23:37:55.207Z,3.95
2022-08-28T23:40:24.029Z,4.20
2022-08-28T23:42:52.081Z,4.32
2022-08-28T23:45:20.761Z,3.78
2022-08-28T23:47:48.346Z,4.43
2022-08-28T23:50:19.923Z,4.45
2022-08-28T23:52:47.742Z,4.53
2022-08-28T23:55:16.727Z,4.32
2022-08-28T23:57:44.427Z,4.07
